createdAt,value
2018-02-05T00:00:33.553Z,1021.33
2018-02-05T00:01:43.503Z,1021.35
2018-02-05T00:02:53.435Z,1021.3
2018-02-05T00:04:03.367Z,1021.37
2018-02-05T00:05:13.306Z,1021.37
2018-02-05T00:06:22.982Z,1021.39
2018-02-05T00:07:32.936Z,1021.36
2018-02-05T00:08:42.880Z,1021.35
2018-02-05T00:09:52.830Z,1021.36
2018-02-05T00:11:02.774Z,1021.33
2018-02-05T00:12:12.707Z,1021.39
2018-02-05T00:13:22.638Z,1021.35
2018-02-05T00:14:32.576Z,1021.39
2018-02-05T00:15:42.525Z,1021.4
2018-02-05T00:16:52.465Z,1021.42
2018-02-05T00:18:02.157Z,1021.4
2018-02-05T00:19:11.855Z,1021.35
2018-02-05T00:20:21.792Z,1021.39
2018-02-05T00:21:31.487Z,1021.37
2018-02-05T00:22:41.432Z,1021.37
2018-02-05T00:23:51.405Z,1021.37
2018-02-05T00:25:01.352Z,1021.39
2018-02-05T00:26:11.044Z,1021.41
2018-02-05T00:27:20.977Z,1021.41
2018-02-05T00:28:30.404Z,1021.41
2018-02-05T00:29:40.338Z,1021.42
2018-02-05T00:30:50.287Z,1021.42
2018-02-05T00:32:00.230Z,1021.44
2018-02-05T00:33:10.183Z,1021.48
2018-02-05T00:34:20.129Z,1021.51
2018-02-05T00:35:30.071Z,1021.51
2018-02-05T00:36:40.008Z,1021.49
2018-02-05T00:37:49.683Z,1021.49
2018-02-05T00:38:59.651Z,1021.51
2018-02-05T00:40:09.592Z,1021.54
2018-02-05T00:41:19.548Z,1021.52
2018-02-05T00:42:29.499Z,1021.54
2018-02-05T00:43:39.439Z,1021.53
2018-02-05T00:44:49.127Z,1021.57
2018-02-05T00:45:59.075Z,1021.58
2018-02-05T00:47:08.759Z,1021.61
2018-02-05T00:48:18.449Z,1021.6
2018-02-05T00:49:28.128Z,1021.61
2018-02-05T00:50:38.075Z,1021.67
2018-02-05T00:51:48.024Z,1021.66
2018-02-05T00:52:57.458Z,1021.66
2018-02-05T00:54:07.404Z,1021.7
2018-02-05T00:55:17.091Z,1021.71
2018-02-05T00:56:27.032Z,1021.72
2018-02-05T00:57:36.980Z,1021.73
2018-02-05T00:58:46.921Z,1021.72
2018-02-05T00:59:56.880Z,1021.76
2018-02-05T01:01:06.815Z,1021.8
2018-02-05T01:02:16.498Z,1021.83
2018-02-05T01:03:26.444Z,1021.82
2018-02-05T01:04:36.401Z,1021.82
2018-02-05T01:05:46.336Z,1021.82
2018-02-05T01:06:56.274Z,1021.79
2018-02-05T01:08:05.954Z,1021.82
2018-02-05T01:09:15.632Z,1021.8
2018-02-05T01:10:25.589Z,1021.84
2018-02-05T01:11:35.520Z,1021.85
2018-02-05T01:12:45.208Z,1021.86
2018-02-05T01:13:54.901Z,1021.88
2018-02-05T01:15:04.835Z,1021.9
2018-02-05T01:16:14.778Z,1021.91
2018-02-05T01:17:24.722Z,1021.9
2018-02-05T01:18:34.658Z,1021.94
2018-02-05T01:19:44.346Z,1021.93
2018-02-05T01:20:54.028Z,1021.9
2018-02-05T01:22:03.968Z,1021.91
2018-02-05T01:23:13.909Z,1021.9
2018-02-05T01:24:23.599Z,1021.95
2018-02-05T01:25:33.536Z,1021.9
2018-02-05T01:26:43.480Z,1021.92
2018-02-05T01:27:53.412Z,1021.9
2018-02-05T01:29:03.367Z,1021.93
2018-02-05T01:30:13.308Z,1021.94
2018-02-05T01:31:23.256Z,1021.92
2018-02-05T01:32:33.200Z,1021.92
2018-02-05T01:33:43.155Z,1021.93
2018-02-05T01:34:52.853Z,1021.92
2018-02-05T01:36:02.791Z,1021.88
2018-02-05T01:37:12.726Z,1021.92
2018-02-05T01:38:22.662Z,1021.97
2018-02-05T01:39:32.596Z,1021.92
2018-02-05T01:40:42.538Z,1021.95
2018-02-05T01:41:52.485Z,1022
2018-02-05T01:43:02.441Z,1021.98
2018-02-05T01:44:11.882Z,1022.02
2018-02-05T01:45:21.587Z,1022
2018-02-05T01:46:31.289Z,1022.01
2018-02-05T01:47:41.032Z,1022.01
2018-02-05T01:48:50.725Z,1022.02
2018-02-05T01:50:00.706Z,1022.03
2018-02-05T01:51:10.659Z,1022.04
2018-02-05T01:52:20.612Z,1022.07
2018-02-05T01:53:30.559Z,1022.08
2018-02-05T01:54:40.495Z,1022.1
2018-02-05T01:55:50.446Z,1022.06
2018-02-05T01:57:00.387Z,1022.1
2018-02-05T01:58:10.321Z,1022.1
2018-02-05T01:59:19.995Z,1022.07
2018-02-05T02:00:29.937Z,1022.11
2018-02-05T02:01:39.618Z,1022.07
2018-02-05T02:02:49.295Z,1022.1
2018-02-05T02:03:58.983Z,1022.09
2018-02-05T02:05:08.926Z,1022.14
2018-02-05T02:06:18.861Z,1022.13
2018-02-05T02:07:28.545Z,1022.14
2018-02-05T02:08:38.244Z,1022.13
2018-02-05T02:09:48.206Z,1022.08
2018-02-05T02:10:58.141Z,1022.08
2018-02-05T02:12:08.079Z,1022.09
2018-02-05T02:13:18.032Z,1022.08
2018-02-05T02:14:27.979Z,1022.09
2018-02-05T02:15:37.908Z,1022.07
2018-02-05T02:16:47.586Z,1022.08
2018-02-05T02:17:57.271Z,1022.06
2018-02-05T02:19:07.217Z,1022.05
2018-02-05T02:20:16.919Z,1022.05
2018-02-05T02:21:26.615Z,1022.1
2018-02-05T02:22:36.303Z,1022.08
2018-02-05T02:23:46.493Z,1022.14
2018-02-05T02:24:56.460Z,1022.14
2018-02-05T02:26:06.135Z,1022.16
2018-02-05T02:27:15.820Z,1022.19
2018-02-05T02:28:25.764Z,1022.19
2018-02-05T02:29:35.436Z,1022.21
2018-02-05T02:30:45.115Z,1022.2
2018-02-05T02:31:55.057Z,1022.17
2018-02-05T02:33:04.763Z,1022.16
2018-02-05T02:34:14.445Z,1022.2
2018-02-05T02:35:24.140Z,1022.19
2018-02-05T02:36:34.117Z,1022.21
2018-02-05T02:37:43.805Z,1022.23
2018-02-05T02:38:53.490Z,1022.22
2018-02-05T02:40:03.448Z,1022.22
2018-02-05T02:41:13.400Z,1022.26
2018-02-05T02:42:23.340Z,1022.27
2018-02-05T02:43:33.281Z,1022.25
2018-02-05T02:44:43.220Z,1022.26
2018-02-05T02:45:53.173Z,1022.23
2018-02-05T02:47:03.116Z,1022.23
2018-02-05T02:48:13.055Z,1022.23
2018-02-05T02:49:22.749Z,1022.23
2018-02-05T02:50:32.440Z,1022.27
2018-02-05T02:51:42.127Z,1022.25
2018-02-05T02:52:51.818Z,1022.26
2018-02-05T02:54:01.760Z,1022.31
2018-02-05T02:55:11.467Z,1022.32
2018-02-05T02:56:21.425Z,1022.29
2018-02-05T02:57:31.379Z,1022.32
2018-02-05T02:58:41.086Z,1022.35
2018-02-05T02:59:51.039Z,1022.38
2018-02-05T03:01:00.976Z,1022.41
2018-02-05T03:02:10.659Z,1022.43
2018-02-05T03:03:20.624Z,1022.39
2018-02-05T03:04:30.559Z,1022.41
2018-02-05T03:05:40.509Z,1022.4
2018-02-05T03:06:50.443Z,1022.4
2018-02-05T03:08:00.131Z,1022.41
2018-02-05T03:09:10.076Z,1022.43
2018-02-05T03:10:20.059Z,1022.5
2018-02-05T03:11:29.997Z,1022.51
2018-02-05T03:12:39.947Z,1022.53
2018-02-05T03:13:49.886Z,1022.52
2018-02-05T03:14:59.828Z,1022.56
2018-02-05T03:16:09.768Z,1022.58
2018-02-05T03:17:19.456Z,1022.59
2018-02-05T03:18:29.394Z,1022.62
2018-02-05T03:19:39.333Z,1022.61
2018-02-05T03:20:49.349Z,1022.61
2018-02-05T03:21:59.283Z,1022.61
2018-02-05T03:23:09.232Z,1022.61
2018-02-05T03:24:19.198Z,1022.6
2018-02-05T03:25:29.151Z,1022.64
2018-02-05T03:26:39.096Z,1022.67
2018-02-05T03:27:49.029Z,1022.66
2018-02-05T03:28:58.982Z,1022.67
2018-02-05T03:30:08.924Z,1022.7
2018-02-05T03:31:18.870Z,1022.69
2018-02-05T03:32:28.562Z,1022.71
2018-02-05T03:33:38.240Z,1022.67
2018-02-05T03:34:47.935Z,1022.73
2018-02-05T03:35:57.628Z,1022.71
2018-02-05T03:37:07.586Z,1022.7
2018-02-05T03:38:17.515Z,1022.71
2018-02-05T03:39:26.941Z,1022.72
2018-02-05T03:40:36.628Z,1022.73
2018-02-05T03:41:46.317Z,1022.74
2018-02-05T03:42:56.246Z,1022.77
2018-02-05T03:44:05.679Z,1022.74
2018-02-05T03:45:15.104Z,1022.75
2018-02-05T03:46:25.043Z,1022.77
2018-02-05T03:47:34.982Z,1022.77
2018-02-05T03:48:44.915Z,1022.78
2018-02-05T03:49:54.856Z,1022.8
2018-02-05T03:51:04.795Z,1022.82
2018-02-05T03:52:14.736Z,1022.81
2018-02-05T03:53:24.674Z,1022.88
2018-02-05T03:54:34.609Z,1022.87
2018-02-05T03:55:44.544Z,1022.89
2018-02-05T03:56:53.969Z,1022.84
2018-02-05T03:58:03.912Z,1022.84
2018-02-05T03:59:13.591Z,1022.86
2018-02-05T04:00:23.524Z,1022.82
2018-02-05T04:01:33.467Z,1022.82
2018-02-05T04:02:43.153Z,1022.77
2018-02-05T04:03:52.882Z,1022.81
2018-02-05T04:05:02.574Z,1022.79
2018-02-05T04:06:12.516Z,1022.8
2018-02-05T04:07:22.474Z,1022.76
2018-02-05T04:08:32.407Z,1022.85
2018-02-05T04:09:42.087Z,1022.89
2018-02-05T04:10:52.023Z,1022.89
2018-02-05T04:12:01.973Z,1022.88
2018-02-05T04:13:11.908Z,1022.92
2018-02-05T04:14:21.847Z,1022.92
2018-02-05T04:15:31.792Z,1022.92
2018-02-05T04:16:41.475Z,1022.97
2018-02-05T04:17:51.421Z,1023.03
2018-02-05T04:19:01.355Z,1023
2018-02-05T04:20:11.291Z,1022.99
2018-02-05T04:21:21.236Z,1022.98
2018-02-05T04:22:31.179Z,1023
2018-02-05T04:23:40.885Z,1023.01
2018-02-05T04:24:50.814Z,1023.05
2018-02-05T04:26:00.754Z,1023.06
2018-02-05T04:27:10.690Z,1023.07
2018-02-05T04:28:20.365Z,1023.06
2018-02-05T04:29:30.320Z,1023.03
2018-02-05T04:30:39.744Z,1023.05
2018-02-05T04:31:49.427Z,1023.02
2018-02-05T04:32:59.353Z,1023.05
2018-02-05T04:34:09.291Z,1023.05
2018-02-05T04:35:19.230Z,1023
2018-02-05T04:36:28.913Z,1023.01
2018-02-05T04:37:38.874Z,1023.06
2018-02-05T04:38:48.298Z,1023.09
2018-02-05T04:39:58.231Z,1023.09
2018-02-05T04:41:07.921Z,1023.11
2018-02-05T04:42:17.602Z,1023.14
2018-02-05T04:43:27.543Z,1023.12
2018-02-05T04:44:37.480Z,1023.14
2018-02-05T04:45:47.426Z,1023.17
2018-02-05T04:46:57.368Z,1023.17
2018-02-05T04:48:07.302Z,1023.19
2018-02-05T04:49:16.732Z,1023.25
2018-02-05T04:50:26.421Z,1023.2
2018-02-05T04:51:36.413Z,1023.23
2018-02-05T04:52:46.344Z,1023.23
2018-02-05T04:53:56.277Z,1023.24
2018-02-05T04:55:06.231Z,1023.29
2018-02-05T04:56:16.165Z,1023.27
2018-02-05T04:57:26.097Z,1023.3
2018-02-05T04:58:35.784Z,1023.24
2018-02-05T04:59:45.717Z,1023.26
2018-02-05T05:00:55.712Z,1023.29
2018-02-05T05:02:05.651Z,1023.3
2018-02-05T05:03:15.371Z,1023.32
2018-02-05T05:04:25.364Z,1023.33
2018-02-05T05:05:35.312Z,1023.35
2018-02-05T05:06:45.236Z,1023.34
2018-02-05T05:07:54.680Z,1023.34
2018-02-05T05:09:04.608Z,1023.43
2018-02-05T05:10:14.300Z,1023.36
2018-02-05T05:11:24.265Z,1023.38
2018-02-05T05:12:34.204Z,1023.41
2018-02-05T05:13:44.144Z,1023.39
2018-02-05T05:14:54.108Z,1023.37
2018-02-05T05:16:04.050Z,1023.37
2018-02-05T05:17:13.731Z,1023.35
2018-02-05T05:18:23.672Z,1023.38
2018-02-05T05:19:33.638Z,1023.42
2018-02-05T05:20:43.577Z,1023.37
2018-02-05T05:21:53.520Z,1023.41
2018-02-05T05:23:03.468Z,1023.4
2018-02-05T05:24:13.404Z,1023.43
2018-02-05T05:25:23.363Z,1023.38
2018-02-05T05:26:33.044Z,1023.38
2018-02-05T05:27:42.974Z,1023.41
2018-02-05T05:28:52.658Z,1023.4
2018-02-05T05:30:02.598Z,1023.38
2018-02-05T05:31:12.789Z,1023.34
2018-02-05T05:32:22.735Z,1023.34
2018-02-05T05:33:32.676Z,1023.34
2018-02-05T05:34:42.607Z,1023.36
2018-02-05T05:35:52.577Z,1023.35
2018-02-05T05:37:02.543Z,1023.38
2018-02-05T05:38:12.494Z,1023.39
2018-02-05T05:39:22.175Z,1023.36
2018-02-05T05:40:31.862Z,1023.42
2018-02-05T05:41:41.795Z,1023.4
2018-02-05T05:42:51.732Z,1023.44
2018-02-05T05:44:01.678Z,1023.43
2018-02-05T05:45:11.609Z,1023.44
2018-02-05T05:46:21.548Z,1023.46
2018-02-05T05:47:31.486Z,1023.47
2018-02-05T05:48:41.433Z,1023.48
2018-02-05T05:49:51.367Z,1023.52
2018-02-05T05:51:01.301Z,1023.51
2018-02-05T05:52:11.235Z,1023.52
2018-02-05T05:53:21.164Z,1023.53
2018-02-05T05:54:31.095Z,1023.53
2018-02-05T05:55:41.052Z,1023.56
2018-02-05T05:56:50.741Z,1023.55
2018-02-05T05:58:00.682Z,1023.57
2018-02-05T05:59:10.380Z,1023.56
2018-02-05T06:00:20.377Z,1023.58
2018-02-05T06:01:30.422Z,1023.58
2018-02-05T06:02:40.365Z,1023.59
2018-02-05T06:03:50.040Z,1023.58
2018-02-05T06:04:59.995Z,1023.6
2018-02-05T06:06:09.942Z,1023.62
2018-02-05T06:07:19.880Z,1023.66
2018-02-05T06:08:29.556Z,1023.62
2018-02-05T06:09:39.485Z,1023.64
2018-02-05T06:10:48.910Z,1023.63
2018-02-05T06:11:58.589Z,1023.66
2018-02-05T06:13:08.531Z,1023.63
2018-02-05T06:14:18.205Z,1023.66
2018-02-05T06:15:28.154Z,1023.68
2018-02-05T06:16:38.090Z,1023.7
2018-02-05T06:17:48.042Z,1023.69
2018-02-05T06:18:58.048Z,1023.75
2018-02-05T06:20:07.983Z,1023.71
2018-02-05T06:21:17.660Z,1023.75
2018-02-05T06:22:27.350Z,1023.74
2018-02-05T06:23:37.282Z,1023.76
2018-02-05T06:24:47.236Z,1023.79
2018-02-05T06:25:57.170Z,1023.77
2018-02-05T06:27:06.588Z,1023.74
2018-02-05T06:28:16.533Z,1023.77
2018-02-05T06:29:26.464Z,1023.8
2018-02-05T06:30:36.412Z,1023.76
2018-02-05T06:31:46.106Z,1023.8
2018-02-05T06:32:55.800Z,1023.84
2018-02-05T06:34:05.476Z,1023.79
2018-02-05T06:35:15.155Z,1023.81
2018-02-05T06:36:25.095Z,1023.78
2018-02-05T06:37:35.037Z,1023.84
2018-02-05T06:38:44.984Z,1023.85
2018-02-05T06:39:54.934Z,1023.89
2018-02-05T06:41:04.663Z,1023.88
2018-02-05T06:42:14.358Z,1023.86
2018-02-05T06:43:24.291Z,1023.92
2018-02-05T06:44:34.226Z,1023.92
2018-02-05T06:45:44.157Z,1023.93
2018-02-05T06:46:54.092Z,1023.96
2018-02-05T06:48:04.018Z,1023.99
2018-02-05T06:49:13.960Z,1023.96
2018-02-05T06:50:23.902Z,1024.03
2018-02-05T06:51:33.587Z,1024.02
2018-02-05T06:52:43.280Z,1023.98
2018-02-05T06:53:53.220Z,1024
2018-02-05T06:55:03.159Z,1024.05
2018-02-05T06:56:13.098Z,1024.05
2018-02-05T06:57:23.032Z,1024.05
2018-02-05T06:58:32.959Z,1024.11
2018-02-05T06:59:42.907Z,1024.07
2018-02-05T07:00:52.845Z,1024.06
2018-02-05T07:02:02.793Z,1024.05
2018-02-05T07:03:12.728Z,1024.04
2018-02-05T07:04:22.674Z,1024.03
2018-02-05T07:05:32.612Z,1024.03
2018-02-05T07:06:42.554Z,1024.09
2018-02-05T07:07:52.493Z,1024.08
2018-02-05T07:09:02.438Z,1024.07
2018-02-05T07:10:12.385Z,1024.1
2018-02-05T07:11:22.314Z,1024.12
2018-02-05T07:12:32.256Z,1024.09
2018-02-05T07:13:42.186Z,1024.08
2018-02-05T07:14:52.131Z,1024.03
2018-02-05T07:16:02.088Z,1024.02
2018-02-05T07:17:12.047Z,1024.06
2018-02-05T07:18:21.734Z,1024.11
2018-02-05T07:19:31.669Z,1024.1
2018-02-05T07:20:41.350Z,1024.07
2018-02-05T07:21:51.022Z,1024.09
2018-02-05T07:23:01.000Z,1024.14
2018-02-05T07:24:10.936Z,1024.18
2018-02-05T07:25:20.881Z,1024.25
2018-02-05T07:26:30.825Z,1024.25
2018-02-05T07:27:40.760Z,1024.27
2018-02-05T07:28:50.697Z,1024.27
2018-02-05T07:30:00.642Z,1024.31
2018-02-05T07:31:10.571Z,1024.32
2018-02-05T07:32:20.260Z,1024.31
2018-02-05T07:33:30.205Z,1024.34
2018-02-05T07:34:40.135Z,1024.32
2018-02-05T07:35:50.081Z,1024.34
2018-02-05T07:37:00.039Z,1024.33
2018-02-05T07:38:09.984Z,1024.35
2018-02-05T07:39:19.911Z,1024.39
2018-02-05T07:40:29.891Z,1024.33
2018-02-05T07:41:39.836Z,1024.36
2018-02-05T07:42:49.524Z,1024.35
2018-02-05T07:43:59.484Z,1024.35
2018-02-05T07:45:09.177Z,1024.33
2018-02-05T07:46:19.127Z,1024.35
2018-02-05T07:47:28.822Z,1024.34
2018-02-05T07:48:38.762Z,1024.34
2018-02-05T07:49:48.706Z,1024.34
2018-02-05T07:50:58.709Z,1024.32
2018-02-05T07:52:08.637Z,1024.27
2018-02-05T07:53:18.571Z,1024.28
2018-02-05T07:54:28.253Z,1024.31
2018-02-05T07:55:38.190Z,1024.29
2018-02-05T07:56:48.158Z,1024.36
2018-02-05T07:57:57.849Z,1024.33
2018-02-05T07:59:07.790Z,1024.34
2018-02-05T08:00:17.741Z,1024.38
2018-02-05T08:01:27.680Z,1024.38
2018-02-05T08:02:37.616Z,1024.4
2018-02-05T08:03:47.311Z,1024.46
2018-02-05T08:04:56.736Z,1024.4
2018-02-05T08:06:06.674Z,1024.43
2018-02-05T08:07:16.631Z,1024.39
2018-02-05T08:08:26.587Z,1024.41
2018-02-05T08:09:36.015Z,1024.42
2018-02-05T08:10:45.997Z,1024.44
2018-02-05T08:11:55.956Z,1024.49
2018-02-05T08:13:05.899Z,1024.45
2018-02-05T08:14:15.842Z,1024.46
2018-02-05T08:15:25.535Z,1024.45
2018-02-05T08:16:35.468Z,1024.47
2018-02-05T08:17:45.409Z,1024.53
2018-02-05T08:18:55.363Z,1024.5
2018-02-05T08:20:05.314Z,1024.51
2018-02-05T08:21:15.256Z,1024.49
2018-02-05T08:22:25.216Z,1024.55
2018-02-05T08:23:35.149Z,1024.53
2018-02-05T08:24:44.850Z,1024.55
2018-02-05T08:25:54.541Z,1024.55
2018-02-05T08:27:04.586Z,1024.55
2018-02-05T08:28:14.522Z,1024.51
2018-02-05T08:29:24.206Z,1024.52
2018-02-05T08:30:33.645Z,1024.54
2018-02-05T08:31:43.615Z,1024.5
2018-02-05T08:32:53.579Z,1024.6
2018-02-05T08:34:03.535Z,1024.5
2018-02-05T08:35:13.476Z,1024.51
2018-02-05T08:36:23.427Z,1024.51
2018-02-05T08:37:33.384Z,1024.55
2018-02-05T08:38:43.331Z,1024.51
2018-02-05T08:39:53.122Z,1024.52
2018-02-05T08:41:03.084Z,1024.53
2018-02-05T08:42:13.044Z,1024.49
2018-02-05T08:43:22.992Z,1024.48
2018-02-05T08:44:32.681Z,1024.45
2018-02-05T08:45:42.640Z,1024.47
2018-02-05T08:46:52.584Z,1024.44
2018-02-05T08:48:02.535Z,1024.47
2018-02-05T08:49:12.502Z,1024.48
2018-02-05T08:50:21.996Z,1024.47
2018-02-05T08:51:31.932Z,1024.46
2018-02-05T08:52:41.869Z,1024.5
2018-02-05T08:53:51.829Z,1024.48
2018-02-05T08:55:01.516Z,1024.52
2018-02-05T08:56:10.942Z,1024.52
2018-02-05T08:57:20.938Z,1024.53
2018-02-05T08:58:30.900Z,1024.49
2018-02-05T08:59:40.856Z,1024.49
2018-02-05T09:00:50.548Z,1024.49
2018-02-05T09:02:00.528Z,1024.52
2018-02-05T09:03:10.466Z,1024.5
2018-02-05T09:04:20.155Z,1024.49
2018-02-05T09:05:30.258Z,1024.49
2018-02-05T09:06:40.204Z,1024.48
2018-02-05T09:07:49.898Z,1024.48
2018-02-05T09:08:59.589Z,1024.46
2018-02-05T09:10:09.534Z,1024.46
2018-02-05T09:11:19.235Z,1024.49
2018-02-05T09:12:28.936Z,1024.52
2018-02-05T09:13:38.888Z,1024.54
2018-02-05T09:14:48.828Z,1024.51
2018-02-05T09:15:58.527Z,1024.5
2018-02-05T09:17:08.497Z,1024.51
2018-02-05T09:18:18.439Z,1024.54
2018-02-05T09:19:28.378Z,1024.52
2018-02-05T09:20:38.063Z,1024.55
2018-02-05T09:21:48.022Z,1024.55
2018-02-05T09:22:57.967Z,1024.56
2018-02-05T09:24:07.924Z,1024.55
2018-02-05T09:25:17.632Z,1024.57
2018-02-05T09:26:27.318Z,1024.59
2018-02-05T09:27:37.009Z,1024.59
2018-02-05T09:28:46.964Z,1024.6
2018-02-05T09:29:56.909Z,1024.59
2018-02-05T09:31:06.859Z,1024.53
2018-02-05T09:32:16.857Z,1024.57
2018-02-05T09:33:26.552Z,1024.57
2018-02-05T09:34:36.252Z,1024.56
2018-02-05T09:35:46.212Z,1024.55
2018-02-05T09:36:56.177Z,1024.58
2018-02-05T09:38:06.121Z,1024.64
2018-02-05T09:39:16.119Z,1024.64
2018-02-05T09:40:25.822Z,1024.63
2018-02-05T09:41:35.512Z,1024.62
2018-02-05T09:42:45.576Z,1024.62
2018-02-05T09:43:55.591Z,1024.59
2018-02-05T09:45:05.546Z,1024.6
2018-02-05T09:46:15.738Z,1024.59
2018-02-05T09:47:25.692Z,1024.59
2018-02-05T09:48:35.638Z,1024.59
2018-02-05T09:49:45.589Z,1024.57
2018-02-05T09:50:55.597Z,1024.57
2018-02-05T09:52:05.548Z,1024.57
2018-02-05T09:53:15.530Z,1024.6
2018-02-05T09:54:25.226Z,1024.59
2018-02-05T09:55:35.194Z,1024.63
2018-02-05T09:56:44.954Z,1024.55
2018-02-05T09:57:54.907Z,1024.55
2018-02-05T09:59:04.601Z,1024.56
2018-02-05T10:00:14.571Z,1024.53
2018-02-05T10:01:24.543Z,1024.52
2018-02-05T10:02:34.229Z,1024.59
2018-02-05T10:03:44.196Z,1024.57
2018-02-05T10:04:54.178Z,1024.51
2018-02-05T10:06:03.920Z,1024.58
2018-02-05T10:07:13.651Z,1024.57
2018-02-05T10:08:23.657Z,1024.56
2018-02-05T10:09:33.107Z,1024.54
2018-02-05T10:10:43.104Z,1024.55
2018-02-05T10:11:53.106Z,1024.57
2018-02-05T10:13:03.102Z,1024.56
2018-02-05T10:14:13.091Z,1024.52
2018-02-05T10:15:22.843Z,1024.51
2018-02-05T10:16:32.413Z,1024.6
2018-02-05T10:17:42.254Z,1024.53
2018-02-05T10:18:52.276Z,1024.5
2018-02-05T10:20:01.785Z,1024.53
2018-02-05T10:21:11.852Z,1024.5
2018-02-05T10:22:21.876Z,1024.49
2018-02-05T10:23:31.855Z,1024.45
2018-02-05T10:24:41.856Z,1024.49
2018-02-05T10:25:51.853Z,1024.45
2018-02-05T10:27:01.841Z,1024.48
2018-02-05T10:28:11.576Z,1024.48
2018-02-05T10:29:21.310Z,1024.51
2018-02-05T10:30:31.289Z,1024.52
2018-02-05T10:31:41.023Z,1024.51
2018-02-05T10:32:50.752Z,1024.44
2018-02-05T10:34:00.738Z,1024.41
2018-02-05T10:35:10.723Z,1024.41
2018-02-05T10:36:20.451Z,1024.39
2018-02-05T10:37:29.951Z,1024.4
2018-02-05T10:38:39.702Z,1024.41
2018-02-05T10:39:49.189Z,1024.42
2018-02-05T10:40:59.180Z,1024.45
2018-02-05T10:42:09.178Z,1024.47
2018-02-05T10:43:19.171Z,1024.46
2018-02-05T10:44:29.147Z,1024.46
2018-02-05T10:45:39.138Z,1024.48
2018-02-05T10:46:49.135Z,1024.49
2018-02-05T10:47:58.859Z,1024.56
2018-02-05T10:49:08.894Z,1024.53
2018-02-05T10:50:19.170Z,1024.51
2018-02-05T10:51:29.175Z,1024.45
2018-02-05T10:52:38.917Z,1024.39
2018-02-05T10:53:48.934Z,1024.42
2018-02-05T10:54:58.713Z,1024.38
2018-02-05T10:56:08.752Z,1024.4
2018-02-05T10:57:18.247Z,1024.44
2018-02-05T10:58:28.239Z,1024.43
2018-02-05T10:59:38.239Z,1024.45
2018-02-05T11:00:48.234Z,1024.45
2018-02-05T11:01:57.691Z,1024.43
2018-02-05T11:03:07.418Z,1024.43
2018-02-05T11:04:17.426Z,1024.46
2018-02-05T11:05:27.406Z,1024.44
2018-02-05T11:06:37.384Z,1024.45
2018-02-05T11:07:47.405Z,1024.44
2018-02-05T11:08:57.405Z,1024.45
2018-02-05T11:10:07.134Z,1024.48
2018-02-05T11:11:17.120Z,1024.45
2018-02-05T11:12:26.856Z,1024.43
2018-02-05T11:13:36.582Z,1024.47
2018-02-05T11:14:46.563Z,1024.5
2018-02-05T11:15:56.282Z,1024.43
2018-02-05T11:17:06.012Z,1024.4
2018-02-05T11:18:15.734Z,1024.42
2018-02-05T11:19:25.204Z,1024.43
2018-02-05T11:20:35.189Z,1024.41
2018-02-05T11:21:45.192Z,1024.37
2018-02-05T11:22:55.413Z,1024.38
2018-02-05T11:24:05.214Z,1024.43
2018-02-05T11:25:15.189Z,1024.36
2018-02-05T11:26:24.913Z,1024.41
2018-02-05T11:27:34.900Z,1024.5
2018-02-05T11:28:44.858Z,1024.39
2018-02-05T11:29:54.802Z,1024.34
2018-02-05T11:31:04.752Z,1024.32
2018-02-05T11:32:14.701Z,1024.3
2018-02-05T11:33:24.641Z,1024.25
2018-02-05T11:34:34.328Z,1024.24
2018-02-05T11:35:44.281Z,1024.26
2018-02-05T11:36:54.228Z,1024.23
2018-02-05T11:38:04.171Z,1024.25
2018-02-05T11:39:14.112Z,1024.24
2018-02-05T11:40:24.068Z,1024.21
2018-02-05T11:41:34.011Z,1024.27
2018-02-05T11:42:44.204Z,1024.16
2018-02-05T11:43:54.160Z,1024.12
2018-02-05T11:45:04.110Z,1024.14
2018-02-05T11:46:13.806Z,1024.16
2018-02-05T11:47:23.744Z,1024.09
2018-02-05T11:48:33.697Z,1024.12
2018-02-05T11:49:43.685Z,1024.08
2018-02-05T11:50:53.652Z,1024.09
2018-02-05T11:52:03.338Z,1024.11
2018-02-05T11:53:13.290Z,1024.13
2018-02-05T11:54:23.238Z,1024.05
2018-02-05T11:55:33.192Z,1024.09
2018-02-05T11:56:43.132Z,1024.1
2018-02-05T11:57:52.839Z,1024.07
2018-02-05T11:59:02.804Z,1024.07
2018-02-05T12:00:12.236Z,1024.06
2018-02-05T12:01:22.196Z,1023.95
2018-02-05T12:02:31.885Z,1023.93
2018-02-05T12:03:40.829Z,1024.01
2018-02-05T12:04:50.527Z,1023.96
2018-02-05T12:06:00.232Z,1024.01
2018-02-05T12:07:10.185Z,1023.95
2018-02-05T12:08:19.904Z,1023.93
2018-02-05T12:09:29.856Z,1023.92
2018-02-05T12:10:39.802Z,1023.9
2018-02-05T12:11:49.754Z,1023.85
2018-02-05T12:12:59.709Z,1023.86
2018-02-05T12:14:09.670Z,1023.83
2018-02-05T12:15:19.634Z,1023.88
2018-02-05T12:16:29.580Z,1023.88
2018-02-05T12:17:39.540Z,1023.85
2018-02-05T12:18:49.258Z,1023.79
2018-02-05T12:19:58.947Z,1023.74
2018-02-05T12:21:08.691Z,1023.72
2018-02-05T12:22:18.643Z,1023.75
2018-02-05T12:23:28.348Z,1023.74
2018-02-05T12:24:38.041Z,1023.7
2018-02-05T12:25:48.003Z,1023.78
2018-02-05T12:26:57.990Z,1023.74
2018-02-05T12:28:07.690Z,1023.7
2018-02-05T12:29:17.120Z,1023.73
2018-02-05T12:30:26.823Z,1023.72
2018-02-05T12:31:36.776Z,1023.62
2018-02-05T12:32:46.780Z,1023.71
2018-02-05T12:33:56.744Z,1023.63
2018-02-05T12:35:06.749Z,1023.61
2018-02-05T12:36:16.708Z,1023.58
2018-02-05T12:37:26.660Z,1023.58
2018-02-05T12:38:36.366Z,1023.56
2018-02-05T12:39:46.335Z,1023.49
2018-02-05T12:40:56.281Z,1023.49
2018-02-05T12:42:05.981Z,1023.47
2018-02-05T12:43:15.668Z,1023.45
2018-02-05T12:44:25.378Z,1023.45
2018-02-05T12:45:35.336Z,1023.44
2018-02-05T12:46:45.286Z,1023.41
2018-02-05T12:47:55.230Z,1023.41
2018-02-05T12:49:05.186Z,1023.37
2018-02-05T12:50:15.146Z,1023.39
2018-02-05T12:51:25.332Z,1023.38
2018-02-05T12:52:35.298Z,1023.38
2018-02-05T12:53:45.246Z,1023.39
2018-02-05T12:54:55.197Z,1023.39
2018-02-05T12:56:04.895Z,1023.34
2018-02-05T12:57:14.631Z,1023.37
2018-02-05T12:58:24.587Z,1023.34
2018-02-05T12:59:34.274Z,1023.31
2018-02-05T13:00:43.983Z,1023.36
2018-02-05T13:01:53.936Z,1023.29
2018-02-05T13:03:03.622Z,1023.28
2018-02-05T13:04:13.312Z,1023.23
2018-02-05T13:05:23.016Z,1023.24
2018-02-05T13:06:32.977Z,1023.23
2018-02-05T13:07:42.932Z,1023.29
2018-02-05T13:08:52.628Z,1023.26
2018-02-05T13:10:02.570Z,1023.25
2018-02-05T13:11:12.525Z,1023.28
2018-02-05T13:12:22.479Z,1023.25
2018-02-05T13:13:32.185Z,1023.21
2018-02-05T13:14:41.884Z,1023.16
2018-02-05T13:15:51.889Z,1023.22
2018-02-05T13:17:01.600Z,1023.25
2018-02-05T13:18:11.551Z,1023.19
2018-02-05T13:19:21.246Z,1023.22
2018-02-05T13:20:31.201Z,1023.22
2018-02-05T13:21:41.146Z,1023.21
2018-02-05T13:22:50.836Z,1023.15
2018-02-05T13:24:00.774Z,1023.19
2018-02-05T13:25:10.762Z,1023.24
2018-02-05T13:26:20.726Z,1023.18
2018-02-05T13:27:30.893Z,1023.18
2018-02-05T13:28:40.316Z,1023.17
2018-02-05T13:29:50.276Z,1023.17
2018-02-05T13:30:59.972Z,1023.13
2018-02-05T13:32:09.934Z,1023.18
2018-02-05T13:33:19.873Z,1023.14
2018-02-05T13:34:29.846Z,1023.12
2018-02-05T13:35:39.552Z,1023.07
2018-02-05T13:36:49.503Z,1023.1
2018-02-05T13:37:59.456Z,1023.12
2018-02-05T13:39:09.153Z,1023.08
2018-02-05T13:40:18.855Z,1023.09
2018-02-05T13:41:28.616Z,1023.09
2018-02-05T13:42:38.306Z,1023
2018-02-05T13:43:47.745Z,1023
2018-02-05T13:44:57.444Z,1023
2018-02-05T13:46:07.396Z,1023.01
2018-02-05T13:47:17.125Z,1022.98
2018-02-05T13:48:27.088Z,1022.97
2018-02-05T13:49:37.037Z,1022.96
2018-02-05T13:50:46.765Z,1022.99
2018-02-05T13:51:56.729Z,1022.99
2018-02-05T13:53:06.460Z,1022.92
2018-02-05T13:54:16.465Z,1022.95
2018-02-05T13:55:26.468Z,1022.99
2018-02-05T13:56:36.208Z,1022.94
2018-02-05T13:57:45.962Z,1022.93
2018-02-05T13:58:55.932Z,1022.88
2018-02-05T14:00:05.937Z,1022.88
2018-02-05T14:01:15.881Z,1022.87
2018-02-05T14:02:25.827Z,1022.81
2018-02-05T14:03:35.807Z,1022.84
2018-02-05T14:04:45.769Z,1022.84
2018-02-05T14:05:55.486Z,1022.83
2018-02-05T14:07:05.445Z,1022.75
2018-02-05T14:08:15.437Z,1022.67